Helena — SCGL — position and weather

sailwx.info

Track history (hours):
 
Tides and Currents Weather Stations Pressure Air Temp Water Temp Dewpoint Dewpoint Depression Visibility Wind Speed Wind Dir Waves Ship Positions

Helena

Last reported at 2016-Feb-09 02:26 UTC. Time now 2016-Feb-09 07:47 UTC.
Position N 55°42' E 015°35'.

Length 169 m; draft 6.3 m.

Type: Cargo ship. MMSI: 265145000.

Date/timePositionNaut miles runAvg speedWind from/ knotsBaromVisibWave heightAir tempDewpointWater temp
2016-Feb-09 02:26N 55°42' E 015°35'1416.1
2016-Feb-09 01:34N 55°35' E 015°13'1616.2
2016-Feb-09 00:33N 55°27' E 014°49'1616.0
2016-Feb-08 23:33N 55°16' E 014°29'1616.3
2016-Feb-08 22:33N 55°03' E 014°11'1616.1
2016-Feb-08 21:33N 54°56' E 013°45'2516.5
2016-Feb-08 20:03N 54°48' E 013°04'815.8
2016-Feb-08 19:33N 54°46' E 012°52'2115.4
2016-Feb-08 18:13N 54°34' E 012°23'1015.4
2016-Feb-08 17:34N 54°26' E 012°12'1515.1
2016-Feb-08 16:33N 54°20' E 011°48'1616.1
2016-Feb-08 15:33N 54°11' E 011°25'10 0.9
2016-Feb-08 03:30N 54°07' E 011°09'1313.5
2016-Feb-08 02:33N 54°14' E 011°27'1413.8
2016-Feb-08 01:33N 54°21' E 011°47'1313.4
2016-Feb-08 00:33N 54°26' E 012°08'1212.3
2016-Feb-07 23:33N 54°37' E 012°17'6613.2
2016-Feb-07 18:33N 55°04' E 014°01'8 8.1
2016-Feb-07 17:33N 55°10' E 014°12'8 8.3
2016-Feb-07 16:34N 55°16' E 014°21'8 7.9
2016-Feb-07 15:33N 55°22' E 014°30'8 8.1
2016-Feb-07 14:33N 55°28' E 014°41'7 7.4
2016-Feb-07 13:33N 55°31' E 014°52'8 7.7
2016-Feb-07 12:33N 55°35' E 015°04'8 7.6
2016-Feb-07 11:33N 55°39' E 015°15'82 8.1
2016-Feb-07 01:24N 56°38' E 016°58'10 9.7
2016-Feb-07 00:22N 56°48' E 017°03'8 9.9
2016-Feb-06 23:33N 56°56' E 017°07'10 9.7
2016-Feb-06 22:33N 57°05' E 017°12'10 9.6
2016-Feb-06 21:33N 57°14' E 017°19'10 9.6
2016-Feb-06 20:34N 57°22' E 017°28'9 9.3
2016-Feb-06 19:33N 57°30' E 017°38'  
2016-Feb-02 11:13N 57°14' E 017°38'11515.0
2016-Feb-02 03:33N 55°42' E 015°34'1616.3
2016-Feb-02 02:34N 55°33' E 015°09'1716.6
2016-Feb-02 01:34N 55°25' E 014°43'1616.4
2016-Feb-02 00:34N 55°13' E 014°23'1616.2
2016-Feb-01 23:34N 55°01' E 014°05'1616.3
2016-Feb-01 22:33N 54°55' E 013°38'5116.2
2016-Feb-01 19:26N 54°32' E 012°20'1415.8
2016-Feb-01 18:34N 54°24' E 012°01'1616.4
2016-Feb-01 17:33N 54°15' E 011°37'1616.2
2016-Feb-01 16:33N 54°07' E 011°14'15 1.2
2016-Feb-01 04:33N 53°58' E 010°54'10 9.7
2016-Feb-01 03:33N 54°05' E 011°06'1010.2
2016-Feb-01 02:33N 54°11' E 011°19'1010.5
2016-Feb-01 01:33N 54°17' E 011°34'1010.4
2016-Feb-01 00:33N 54°22' E 011°49'1010.2
2016-Jan-31 23:34N 54°26' E 012°05'9 9.4
2016-Jan-31 22:33N 54°34' E 012°14'10 9.9
2016-Jan-31 21:34N 54°41' E 012°26'53 9.7
2016-Jan-31 16:09N 55°01' E 013°51'610.1
2016-Jan-31 15:33N 55°04' E 014°00'10 9.6
2016-Jan-31 14:33N 55°10' E 014°13'1010.4
2016-Jan-31 13:33N 55°18' E 014°25'10 9.9
2016-Jan-31 12:34N 55°25' E 014°36'10 9.9
2016-Jan-31 11:33N 55°31' E 014°50'10 9.9
2016-Jan-31 10:33N 55°36' E 015°05'99 9.0
2016-Jan-30 23:33N 56°50' E 017°05'10 9.9
2016-Jan-30 22:33N 56°59' E 017°09'9 9.3
2016-Jan-30 21:33N 57°08' E 017°14'10 9.5
2016-Jan-30 20:33N 57°17' E 017°22'1010.2
2016-Jan-30 19:34N 57°25' E 017°32'1010.1
2016-Jan-30 18:33N 57°34' E 017°43'  
Track history (hours):
 
Tides and Currents Weather Stations Pressure Air Temp Water Temp Dewpoint Dewpoint Depression Visibility Wind Speed Wind Dir Waves Ship Positions

Helena

Last reported at 2016-Feb-09 02:26 UTC. Time now 2016-Feb-09 07:47 UTC.
Position N 55°42' E 015°35'.

Length 169 m; draft 6.3 m.

Type: Cargo ship. MMSI: 265145000.

Date/timePositionNaut miles runAvg speedWind from/ knotsBaromVisibWave heightAir tempDewpointWater temp
2016-Feb-09 02:26N 55°42' E 015°35'1416.1
2016-Feb-09 01:34N 55°35' E 015°13'1616.2
2016-Feb-09 00:33N 55°27' E 014°49'1616.0
2016-Feb-08 23:33N 55°16' E 014°29'1616.3
2016-Feb-08 22:33N 55°03' E 014°11'1616.1
2016-Feb-08 21:33N 54°56' E 013°45'2516.5
2016-Feb-08 20:03N 54°48' E 013°04'815.8
2016-Feb-08 19:33N 54°46' E 012°52'2115.4
2016-Feb-08 18:13N 54°34' E 012°23'1015.4
2016-Feb-08 17:34N 54°26' E 012°12'1515.1
2016-Feb-08 16:33N 54°20' E 011°48'1616.1
2016-Feb-08 15:33N 54°11' E 011°25'10 0.9
2016-Feb-08 03:30N 54°07' E 011°09'1313.5
2016-Feb-08 02:33N 54°14' E 011°27'1413.8
2016-Feb-08 01:33N 54°21' E 011°47'1313.4
2016-Feb-08 00:33N 54°26' E 012°08'1212.3
2016-Feb-07 23:33N 54°37' E 012°17'6613.2
2016-Feb-07 18:33N 55°04' E 014°01'8 8.1
2016-Feb-07 17:33N 55°10' E 014°12'8 8.3
2016-Feb-07 16:34N 55°16' E 014°21'8 7.9
2016-Feb-07 15:33N 55°22' E 014°30'8 8.1
2016-Feb-07 14:33N 55°28' E 014°41'7 7.4
2016-Feb-07 13:33N 55°31' E 014°52'8 7.7
2016-Feb-07 12:33N 55°35' E 015°04'8 7.6
2016-Feb-07 11:33N 55°39' E 015°15'82 8.1
2016-Feb-07 01:24N 56°38' E 016°58'10 9.7
2016-Feb-07 00:22N 56°48' E 017°03'8 9.9
2016-Feb-06 23:33N 56°56' E 017°07'10 9.7
2016-Feb-06 22:33N 57°05' E 017°12'10 9.6
2016-Feb-06 21:33N 57°14' E 017°19'10 9.6
2016-Feb-06 20:34N 57°22' E 017°28'9 9.3
2016-Feb-06 19:33N 57°30' E 017°38'  
2016-Feb-02 11:13N 57°14' E 017°38'11515.0
2016-Feb-02 03:33N 55°42' E 015°34'1616.3
2016-Feb-02 02:34N 55°33' E 015°09'1716.6
2016-Feb-02 01:34N 55°25' E 014°43'1616.4
2016-Feb-02 00:34N 55°13' E 014°23'1616.2
2016-Feb-01 23:34N 55°01' E 014°05'1616.3
2016-Feb-01 22:33N 54°55' E 013°38'5116.2
2016-Feb-01 19:26N 54°32' E 012°20'1415.8
2016-Feb-01 18:34N 54°24' E 012°01'1616.4
2016-Feb-01 17:33N 54°15' E 011°37'1616.2
2016-Feb-01 16:33N 54°07' E 011°14'15 1.2
2016-Feb-01 04:33N 53°58' E 010°54'10 9.7
2016-Feb-01 03:33N 54°05' E 011°06'1010.2
2016-Feb-01 02:33N 54°11' E 011°19'1010.5
2016-Feb-01 01:33N 54°17' E 011°34'1010.4
2016-Feb-01 00:33N 54°22' E 011°49'1010.2
2016-Jan-31 23:34N 54°26' E 012°05'9 9.4
2016-Jan-31 22:33N 54°34' E 012°14'10 9.9
2016-Jan-31 21:34N 54°41' E 012°26'53 9.7
2016-Jan-31 16:09N 55°01' E 013°51'610.1
2016-Jan-31 15:33N 55°04' E 014°00'10 9.6
2016-Jan-31 14:33N 55°10' E 014°13'1010.4
2016-Jan-31 13:33N 55°18' E 014°25'10 9.9
2016-Jan-31 12:34N 55°25' E 014°36'10 9.9
2016-Jan-31 11:33N 55°31' E 014°50'10 9.9
2016-Jan-31 10:33N 55°36' E 015°05'99 9.0
2016-Jan-30 23:33N 56°50' E 017°05'10 9.9
2016-Jan-30 22:33N 56°59' E 017°09'9 9.3
2016-Jan-30 21:33N 57°08' E 017°14'10 9.5
2016-Jan-30 20:33N 57°17' E 017°22'1010.2
2016-Jan-30 19:34N 57°25' E 017°32'1010.1
2016-Jan-30 18:33N 57°34' E 017°43'  

Dump ship's entire track history